sensor_id;sensor_type;location;lat;lon;timestamp;temperature;humidity
8188;DHT22;4135;49.184;9.722;2022-09-30T00:01:57;21.30;51.00
8188;DHT22;4135;49.184;9.722;2022-09-30T00:04:27;21.30;50.90
8188;DHT22;4135;49.184;9.722;2022-09-30T00:06:56;21.30;51.00
8188;DHT22;4135;49.184;9.722;2022-09-30T00:09:26;21.30;51.00
8188;DHT22;4135;49.184;9.722;2022-09-30T00:11:56;21.30;50.90
8188;DHT22;4135;49.184;9.722;2022-09-30T00:14:25;21.30;51.00
8188;DHT22;4135;49.184;9.722;2022-09-30T00:16:55;21.30;51.00
8188;DHT22;4135;49.184;9.722;2022-09-30T00:19:24;21.20;50.90
8188;DHT22;4135;49.184;9.722;2022-09-30T00:21:54;21.20;50.90
8188;DHT22;4135;49.184;9.722;2022-09-30T00:24:23;21.20;50.90
8188;DHT22;4135;49.184;9.722;2022-09-30T00:26:53;21.20;50.90
8188;DHT22;4135;49.184;9.722;2022-09-30T00:29:22;21.10;50.80
8188;DHT22;4135;49.184;9.722;2022-09-30T00:31:52;21.10;50.80
8188;DHT22;4135;49.184;9.722;2022-09-30T00:34:21;21.10;50.70
8188;DHT22;4135;49.184;9.722;2022-09-30T00:36:53;21.10;50.70
8188;DHT22;4135;49.184;9.722;2022-09-30T00:39:25;21.10;50.70
8188;DHT22;4135;49.184;9.722;2022-09-30T00:42:02;21.00;50.60
8188;DHT22;4135;49.184;9.722;2022-09-30T00:50:17;21.00;50.60
8188;DHT22;4135;49.184;9.722;2022-09-30T00:52:53;21.00;50.60
8188;DHT22;4135;49.184;9.722;2022-09-30T01:01:14;20.90;50.60
8188;DHT22;4135;49.184;9.722;2022-09-30T01:03:49;21.00;50.70
8188;DHT22;4135;49.184;9.722;2022-09-30T01:06:22;20.90;51.10
8188;DHT22;4135;49.184;9.722;2022-09-30T01:08:52;20.90;50.60
8188;DHT22;4135;49.184;9.722;2022-09-30T01:11:22;20.90;50.60
8188;DHT22;4135;49.184;9.722;2022-09-30T01:13:56;20.90;50.60
8188;DHT22;4135;49.184;9.722;2022-09-30T01:25:12;20.80;50.50
8188;DHT22;4135;49.184;9.722;2022-09-30T01:37:00;20.70;50.40
8188;DHT22;4135;49.184;9.722;2022-09-30T01:39:49;20.70;50.40
8188;DHT22;4135;49.184;9.722;2022-09-30T01:45:27;20.70;50.40
8188;DHT22;4135;49.184;9.722;2022-09-30T01:48:06;20.70;50.40
8188;DHT22;4135;49.184;9.722;2022-09-30T01:50:47;20.60;50.30
8188;DHT22;4135;49.184;9.722;2022-09-30T01:53:29;20.70;50.40
8188;DHT22;4135;49.184;9.722;2022-09-30T01:56:17;20.60;50.40
8188;DHT22;4135;49.184;9.722;2022-09-30T01:59:12;20.60;50.30
8188;DHT22;4135;49.184;9.722;2022-09-30T02:01:56;20.60;50.40
8188;DHT22;4135;49.184;9.722;2022-09-30T02:05:22;20.60;50.30
8188;DHT22;4135;49.184;9.722;2022-09-30T02:07:36;20.60;50.30
8188;DHT22;4135;49.184;9.722;2022-09-30T02:10:26;20.50;50.30
8188;DHT22;4135;49.184;9.722;2022-09-30T02:15:44;20.50;50.30
8188;DHT22;4135;49.184;9.722;2022-09-30T02:18:21;20.50;50.30
8188;DHT22;4135;49.184;9.722;2022-09-30T02:20:58;20.50;50.30
8188;DHT22;4135;49.184;9.722;2022-09-30T02:23:34;20.50;50.30
8188;DHT22;4135;49.184;9.722;2022-09-30T02:26:17;20.50;50.30
8188;DHT22;4135;49.184;9.722;2022-09-30T02:28:51;20.50;50.30
8188;DHT22;4135;49.184;9.722;2022-09-30T02:31:23;20.40;50.20
8188;DHT22;4135;49.184;9.722;2022-09-30T02:34:02;20.40;50.30
8188;DHT22;4135;49.184;9.722;2022-09-30T02:36:43;20.40;50.30
8188;DHT22;4135;49.184;9.722;2022-09-30T02:39:38;20.40;50.30
8188;DHT22;4135;49.184;9.722;2022-09-30T02:42:17;20.40;50.20
8188;DHT22;4135;49.184;9.722;2022-09-30T02:44:50;20.40;50.30
8188;DHT22;4135;49.184;9.722;2022-09-30T02:58:41;20.30;50.20
8188;DHT22;4135;49.184;9.722;2022-09-30T03:01:13;20.30;50.10
8188;DHT22;4135;49.184;9.722;2022-09-30T03:03:48;20.20;50.10
8188;DHT22;4135;49.184;9.722;2022-09-30T03:06:19;20.20;50.00
8188;DHT22;4135;49.184;9.722;2022-09-30T03:08:50;20.20;50.00
8188;DHT22;4135;49.184;9.722;2022-09-30T03:11:23;20.20;50.00
8188;DHT22;4135;49.184;9.722;2022-09-30T03:19:44;20.10;50.00
8188;DHT22;4135;49.184;9.722;2022-09-30T03:25:22;20.10;49.90
8188;DHT22;4135;49.184;9.722;2022-09-30T03:31:04;20.10;49.90
8188;DHT22;4135;49.184;9.722;2022-09-30T03:33:50;20.10;49.90
8188;DHT22;4135;49.184;9.722;2022-09-30T03:36:37;20.10;49.90
8188;DHT22;4135;49.184;9.722;2022-09-30T03:39:20;20.10;50.00
8188;DHT22;4135;49.184;9.722;2022-09-30T03:44:59;20.00;50.00
8188;DHT22;4135;49.184;9.722;2022-09-30T03:47:36;20.00;49.90
8188;DHT22;4135;49.184;9.722;2022-09-30T03:50:09;20.00;50.00
8188;DHT22;4135;49.184;9.722;2022-09-30T03:52:40;20.00;49.90
8188;DHT22;4135;49.184;9.722;2022-09-30T03:55:10;20.00;49.90
8188;DHT22;4135;49.184;9.722;2022-09-30T03:57:40;20.00;49.80
8188;DHT22;4135;49.184;9.722;2022-09-30T04:00:12;19.90;49.80
8188;DHT22;4135;49.184;9.722;2022-09-30T04:02:41;20.00;49.90
8188;DHT22;4135;49.184;9.722;2022-09-30T04:05:11;19.90;49.90
8188;DHT22;4135;49.184;9.722;2022-09-30T04:07:41;19.90;49.80
8188;DHT22;4135;49.184;9.722;2022-09-30T04:10:10;19.90;49.80
8188;DHT22;4135;49.184;9.722;2022-09-30T04:12:40;19.90;49.80
8188;DHT22;4135;49.184;9.722;2022-09-30T04:15:09;19.90;49.80
8188;DHT22;4135;49.184;9.722;2022-09-30T04:17:39;19.90;49.90
8188;DHT22;4135;49.184;9.722;2022-09-30T04:20:09;19.90;49.80
8188;DHT22;4135;49.184;9.722;2022-09-30T04:22:40;19.80;49.70
8188;DHT22;4135;49.184;9.722;2022-09-30T04:25:10;19.80;49.80
8188;DHT22;4135;49.184;9.722;2022-09-30T04:27:40;19.90;49.90
8188;DHT22;4135;49.184;9.722;2022-09-30T04:30:09;19.80;49.80
8188;DHT22;4135;49.184;9.722;2022-09-30T04:32:42;19.80;49.80
8188;DHT22;4135;49.184;9.722;2022-09-30T04:35:13;19.80;49.70
8188;DHT22;4135;49.184;9.722;2022-09-30T04:37:44;19.80;49.80
8188;DHT22;4135;49.184;9.722;2022-09-30T04:40:14;19.80;49.80
8188;DHT22;4135;49.184;9.722;2022-09-30T04:42:44;19.80;49.80
8188;DHT22;4135;49.184;9.722;2022-09-30T04:45:15;19.70;49.70
8188;DHT22;4135;49.184;9.722;2022-09-30T04:47:45;19.80;49.80
8188;DHT22;4135;49.184;9.722;2022-09-30T04:50:14;19.80;49.80
8188;DHT22;4135;49.184;9.722;2022-09-30T04:52:44;19.70;49.70
8188;DHT22;4135;49.184;9.722;2022-09-30T04:55:13;19.70;49.80
8188;DHT22;4135;49.184;9.722;2022-09-30T04:57:44;19.70;49.70
8188;DHT22;4135;49.184;9.722;2022-09-30T05:00:13;19.70;49.70
8188;DHT22;4135;49.184;9.722;2022-09-30T05:02:43;19.70;49.60
8188;DHT22;4135;49.184;9.722;2022-09-30T05:05:13;19.70;49.60
8188;DHT22;4135;49.184;9.722;2022-09-30T05:07:43;19.70;49.70
8188;DHT22;4135;49.184;9.722;2022-09-30T05:10:13;19.70;49.80
8188;DHT22;4135;49.184;9.722;2022-09-30T05:12:42;19.70;49.80
8188;DHT22;4135;49.184;9.722;2022-09-30T05:15:13;19.70;50.30
8188;DHT22;4135;49.184;9.722;2022-09-30T05:17:42;19.70;50.00
8188;DHT22;4135;49.184;9.722;2022-09-30T05:20:12;19.70;49.90
8188;DHT22;4135;49.184;9.722;2022-09-30T05:22:42;19.70;49.90
8188;DHT22;4135;49.184;9.722;2022-09-30T05:25:11;19.70;50.00
8188;DHT22;4135;49.184;9.722;2022-09-30T05:27:41;19.70;50.10
8188;DHT22;4135;49.184;9.722;2022-09-30T05:30:10;19.70;50.40
8188;DHT22;4135;49.184;9.722;2022-09-30T05:32:40;19.60;50.40
8188;DHT22;4135;49.184;9.722;2022-09-30T05:35:10;19.60;50.30
8188;DHT22;4135;49.184;9.722;2022-09-30T05:37:40;19.60;50.40
8188;DHT22;4135;49.184;9.722;2022-09-30T05:40:10;19.50;49.70
8188;DHT22;4135;49.184;9.722;2022-09-30T05:42:39;19.60;50.00
8188;DHT22;4135;49.184;9.722;2022-09-30T05:45:09;19.60;50.10
8188;DHT22;4135;49.184;9.722;2022-09-30T05:47:39;19.60;50.10
8188;DHT22;4135;49.184;9.722;2022-09-30T05:50:08;19.60;50.00
8188;DHT22;4135;49.184;9.722;2022-09-30T05:52:38;19.60;50.10
8188;DHT22;4135;49.184;9.722;2022-09-30T05:55:07;19.60;50.20
8188;DHT22;4135;49.184;9.722;2022-09-30T05:57:37;19.60;51.30
8188;DHT22;4135;49.184;9.722;2022-09-30T06:00:08;19.60;53.10
8188;DHT22;4135;49.184;9.722;2022-09-30T06:02:38;19.70;53.10
8188;DHT22;4135;49.184;9.722;2022-09-30T06:05:08;19.70;53.20
8188;DHT22;4135;49.184;9.722;2022-09-30T06:07:38;19.70;53.30
8188;DHT22;4135;49.184;9.722;2022-09-30T06:10:08;19.70;53.40
8188;DHT22;4135;49.184;9.722;2022-09-30T06:12:40;19.70;53.40
8188;DHT22;4135;49.184;9.722;2022-09-30T06:15:10;19.70;53.30
8188;DHT22;4135;49.184;9.722;2022-09-30T06:17:39;19.70;53.40
8188;DHT22;4135;49.184;9.722;2022-09-30T06:20:11;19.70;53.50
8188;DHT22;4135;49.184;9.722;2022-09-30T06:22:40;19.70;53.40
8188;DHT22;4135;49.184;9.722;2022-09-30T06:25:11;19.70;53.40
8188;DHT22;4135;49.184;9.722;2022-09-30T06:27:44;19.70;53.40
8188;DHT22;4135;49.184;9.722;2022-09-30T06:30:15;19.70;53.30
8188;DHT22;4135;49.184;9.722;2022-09-30T06:32:44;19.70;53.40
8188;DHT22;4135;49.184;9.722;2022-09-30T06:35:14;19.60;53.30
8188;DHT22;4135;49.184;9.722;2022-09-30T06:37:45;19.60;53.30
8188;DHT22;4135;49.184;9.722;2022-09-30T06:40:14;19.70;53.30
8188;DHT22;4135;49.184;9.722;2022-09-30T06:42:44;19.70;53.20
8188;DHT22;4135;49.184;9.722;2022-09-30T06:45:14;19.70;53.20
8188;DHT22;4135;49.184;9.722;2022-09-30T06:47:44;19.60;53.60
8188;DHT22;4135;49.184;9.722;2022-09-30T06:50:15;19.70;53.20
8188;DHT22;4135;49.184;9.722;2022-09-30T06:52:44;19.70;53.10
8188;DHT22;4135;49.184;9.722;2022-09-30T06:55:14;19.70;53.10
8188;DHT22;4135;49.184;9.722;2022-09-30T06:57:44;19.70;53.00
8188;DHT22;4135;49.184;9.722;2022-09-30T07:00:16;19.60;52.80
8188;DHT22;4135;49.184;9.722;2022-09-30T07:02:46;19.70;52.80
8188;DHT22;4135;49.184;9.722;2022-09-30T07:05:17;19.70;52.80
8188;DHT22;4135;49.184;9.722;2022-09-30T07:07:47;19.70;52.80
8188;DHT22;4135;49.184;9.722;2022-09-30T07:10:17;19.60;52.70
8188;DHT22;4135;49.184;9.722;2022-09-30T07:12:51;19.70;52.80
8188;DHT22;4135;49.184;9.722;2022-09-30T07:15:21;19.70;52.60
8188;DHT22;4135;49.184;9.722;2022-09-30T07:17:55;19.70;52.50
8188;DHT22;4135;49.184;9.722;2022-09-30T07:20:25;19.70;52.40
8188;DHT22;4135;49.184;9.722;2022-09-30T07:22:54;19.70;52.40
8188;DHT22;4135;49.184;9.722;2022-09-30T07:25:24;19.70;52.40
8188;DHT22;4135;49.184;9.722;2022-09-30T07:27:53;19.70;52.30
8188;DHT22;4135;49.184;9.722;2022-09-30T07:30:24;19.70;52.40
8188;DHT22;4135;49.184;9.722;2022-09-30T07:32:54;19.70;52.30
8188;DHT22;4135;49.184;9.722;2022-09-30T07:35:23;19.70;52.30
8188;DHT22;4135;49.184;9.722;2022-09-30T07:37:53;19.70;52.20
8188;DHT22;4135;49.184;9.722;2022-09-30T07:40:22;19.70;52.10
8188;DHT22;4135;49.184;9.722;2022-09-30T07:42:52;19.70;52.10
8188;DHT22;4135;49.184;9.722;2022-09-30T07:45:22;19.70;52.00
8188;DHT22;4135;49.184;9.722;2022-09-30T07:47:52;19.70;52.00
8188;DHT22;4135;49.184;9.722;2022-09-30T07:50:22;19.70;51.90
8188;DHT22;4135;49.184;9.722;2022-09-30T07:52:52;19.70;51.80
8188;DHT22;4135;49.184;9.722;2022-09-30T07:55:21;19.70;51.80
8188;DHT22;4135;49.184;9.722;2022-09-30T07:57:51;19.70;51.80
8188;DHT22;4135;49.184;9.722;2022-09-30T08:00:20;19.80;51.80
8188;DHT22;4135;49.184;9.722;2022-09-30T08:02:50;19.70;51.80
8188;DHT22;4135;49.184;9.722;2022-09-30T08:05:20;19.70;51.60
8188;DHT22;4135;49.184;9.722;2022-09-30T08:07:49;19.70;51.60
8188;DHT22;4135;49.184;9.722;2022-09-30T08:10:19;19.80;51.70
8188;DHT22;4135;49.184;9.722;2022-09-30T08:12:48;19.80;51.70
8188;DHT22;4135;49.184;9.722;2022-09-30T08:15:18;19.80;51.60
8188;DHT22;4135;49.184;9.722;2022-09-30T08:17:47;19.80;51.60
8188;DHT22;4135;49.184;9.722;2022-09-30T08:20:17;19.80;51.50
8188;DHT22;4135;49.184;9.722;2022-09-30T08:22:46;19.80;51.50
8188;DHT22;4135;49.184;9.722;2022-09-30T08:25:16;19.80;51.50
8188;DHT22;4135;49.184;9.722;2022-09-30T08:27:45;19.80;51.40
8188;DHT22;4135;49.184;9.722;2022-09-30T08:30:15;19.90;51.40
8188;DHT22;4135;49.184;9.722;2022-09-30T08:32:45;19.90;51.40
8188;DHT22;4135;49.184;9.722;2022-09-30T08:35:14;19.90;51.40
8188;DHT22;4135;49.184;9.722;2022-09-30T08:37:44;19.90;51.40
8188;DHT22;4135;49.184;9.722;2022-09-30T08:40:26;19.90;51.30
8188;DHT22;4135;49.184;9.722;2022-09-30T08:43:17;20.00;51.50
8188;DHT22;4135;49.184;9.722;2022-09-30T08:46:11;20.00;51.40
8188;DHT22;4135;49.184;9.722;2022-09-30T08:48:55;20.00;51.40
8188;DHT22;4135;49.184;9.722;2022-09-30T08:53:59;20.00;51.30
8188;DHT22;4135;49.184;9.722;2022-09-30T08:56:32;20.00;51.30
8188;DHT22;4135;49.184;9.722;2022-09-30T08:59:33;20.00;51.30
8188;DHT22;4135;49.184;9.722;2022-09-30T09:02:29;20.10;51.30
8188;DHT22;4135;49.184;9.722;2022-09-30T09:05:04;20.10;51.30
8188;DHT22;4135;49.184;9.722;2022-09-30T09:07:42;20.10;51.30
8188;DHT22;4135;49.184;9.722;2022-09-30T09:10:42;20.10;51.30
8188;DHT22;4135;49.184;9.722;2022-09-30T09:13:41;20.10;51.40
8188;DHT22;4135;49.184;9.722;2022-09-30T09:16:24;20.10;51.40
8188;DHT22;4135;49.184;9.722;2022-09-30T09:19:09;20.20;51.50
8188;DHT22;4135;49.184;9.722;2022-09-30T09:21:53;20.10;51.40
8188;DHT22;4135;49.184;9.722;2022-09-30T09:24:28;20.20;51.40
8188;DHT22;4135;49.184;9.722;2022-09-30T09:26:58;20.20;51.40
8188;DHT22;4135;49.184;9.722;2022-09-30T09:32:15;20.20;51.50
8188;DHT22;4135;49.184;9.722;2022-09-30T09:34:50;20.20;51.60
8188;DHT22;4135;49.184;9.722;2022-09-30T09:37:33;20.30;51.60
8188;DHT22;4135;49.184;9.722;2022-09-30T09:54:28;20.40;51.60
8188;DHT22;4135;49.184;9.722;2022-09-30T09:57:10;20.50;51.60
8188;DHT22;4135;49.184;9.722;2022-09-30T10:02:30;20.50;51.60
8188;DHT22;4135;49.184;9.722;2022-09-30T10:05:00;20.50;51.60
8188;DHT22;4135;49.184;9.722;2022-09-30T10:07:32;20.50;51.60
8188;DHT22;4135;49.184;9.722;2022-09-30T10:10:20;20.60;51.60
8188;DHT22;4135;49.184;9.722;2022-09-30T10:12:50;20.60;51.50
8188;DHT22;4135;49.184;9.722;2022-09-30T10:15:22;20.70;51.80
8188;DHT22;4135;49.184;9.722;2022-09-30T10:17:54;20.60;51.60
8188;DHT22;4135;49.184;9.722;2022-09-30T10:20:35;20.70;51.70
8188;DHT22;4135;49.184;9.722;2022-09-30T10:23:09;20.70;51.70
8188;DHT22;4135;49.184;9.722;2022-09-30T10:25:54;20.70;51.70
8188;DHT22;4135;49.184;9.722;2022-09-30T10:28:27;20.70;51.70
8188;DHT22;4135;49.184;9.722;2022-09-30T10:31:06;20.80;51.70
8188;DHT22;4135;49.184;9.722;2022-09-30T10:33:47;20.80;51.90
8188;DHT22;4135;49.184;9.722;2022-09-30T10:36:21;20.80;52.00
8188;DHT22;4135;49.184;9.722;2022-09-30T10:39:20;20.80;51.80
8188;DHT22;4135;49.184;9.722;2022-09-30T10:42:16;20.90;52.00
8188;DHT22;4135;49.184;9.722;2022-09-30T10:44:56;20.90;51.90
8188;DHT22;4135;49.184;9.722;2022-09-30T10:47:27;21.00;51.90
8188;DHT22;4135;49.184;9.722;2022-09-30T10:50:13;21.00;51.90
8188;DHT22;4135;49.184;9.722;2022-09-30T10:52:57;21.00;51.90
8188;DHT22;4135;49.184;9.722;2022-09-30T10:55:33;21.10;52.00
8188;DHT22;4135;49.184;9.722;2022-09-30T11:01:16;21.20;52.00
8188;DHT22;4135;49.184;9.722;2022-09-30T11:04:34;21.20;51.90
8188;DHT22;4135;49.184;9.722;2022-09-30T11:10:13;21.30;52.10
8188;DHT22;4135;49.184;9.722;2022-09-30T11:13:18;21.40;52.00
8188;DHT22;4135;49.184;9.722;2022-09-30T11:15:55;21.50;52.10
8188;DHT22;4135;49.184;9.722;2022-09-30T11:18:48;21.50;52.00
8188;DHT22;4135;49.184;9.722;2022-09-30T11:21:24;21.50;52.00
8188;DHT22;4135;49.184;9.722;2022-09-30T11:29:35;21.70;51.90
8188;DHT22;4135;49.184;9.722;2022-09-30T11:43:58;22.10;51.70
8188;DHT22;4135;49.184;9.722;2022-09-30T11:46:45;22.20;51.70
8188;DHT22;4135;49.184;9.722;2022-09-30T11:52:31;22.50;51.40
8188;DHT22;4135;49.184;9.722;2022-09-30T11:58:00;23.60;50.10
8188;DHT22;4135;49.184;9.722;2022-09-30T12:00:34;24.10;49.30
8188;DHT22;4135;49.184;9.722;2022-09-30T12:03:10;24.40;48.80
8188;DHT22;4135;49.184;9.722;2022-09-30T12:05:46;24.50;48.60
8188;DHT22;4135;49.184;9.722;2022-09-30T12:08:26;24.60;48.40
8188;DHT22;4135;49.184;9.722;2022-09-30T12:11:03;24.60;48.30
8188;DHT22;4135;49.184;9.722;2022-09-30T12:13:37;24.60;48.30
8188;DHT22;4135;49.184;9.722;2022-09-30T12:16:15;24.50;48.50
8188;DHT22;4135;49.184;9.722;2022-09-30T12:18:54;24.30;48.60
8188;DHT22;4135;49.184;9.722;2022-09-30T12:21:29;24.00;48.90
8188;DHT22;4135;49.184;9.722;2022-09-30T12:24:07;23.80;49.20
8188;DHT22;4135;49.184;9.722;2022-09-30T12:26:40;23.70;49.40
8188;DHT22;4135;49.184;9.722;2022-09-30T12:29:24;23.60;49.60
8188;DHT22;4135;49.184;9.722;2022-09-30T12:40:25;23.50;50.00
8188;DHT22;4135;49.184;9.722;2022-09-30T12:43:06;23.40;50.00
8188;DHT22;4135;49.184;9.722;2022-09-30T12:46:07;23.40;50.10
8188;DHT22;4135;49.184;9.722;2022-09-30T12:48:50;23.40;50.10
8188;DHT22;4135;49.184;9.722;2022-09-30T12:51:29;23.40;50.20
8188;DHT22;4135;49.184;9.722;2022-09-30T12:56:42;23.40;50.30
8188;DHT22;4135;49.184;9.722;2022-09-30T12:59:13;23.40;50.40
8188;DHT22;4135;49.184;9.722;2022-09-30T13:01:42;23.30;50.40
8188;DHT22;4135;49.184;9.722;2022-09-30T13:04:28;23.30;50.40
8188;DHT22;4135;49.184;9.722;2022-09-30T13:09:35;23.30;50.40
8188;DHT22;4135;49.184;9.722;2022-09-30T13:14:35;23.30;50.50
8188;DHT22;4135;49.184;9.722;2022-09-30T13:19:44;23.30;50.50
8188;DHT22;4135;49.184;9.722;2022-09-30T13:27:34;23.30;50.60
8188;DHT22;4135;49.184;9.722;2022-09-30T13:33:05;23.30;50.70
8188;DHT22;4135;49.184;9.722;2022-09-30T13:35:57;23.30;50.70
8188;DHT22;4135;49.184;9.722;2022-09-30T13:38:37;23.40;50.90
8188;DHT22;4135;49.184;9.722;2022-09-30T13:41:22;23.30;50.80
8188;DHT22;4135;49.184;9.722;2022-09-30T13:44:07;23.40;51.00
8188;DHT22;4135;49.184;9.722;2022-09-30T13:47:32;23.40;51.00
8188;DHT22;4135;49.184;9.722;2022-09-30T13:50:27;23.40;51.00
8188;DHT22;4135;49.184;9.722;2022-09-30T13:53:06;23.40;50.90
8188;DHT22;4135;49.184;9.722;2022-09-30T13:55:46;23.40;51.00
8188;DHT22;4135;49.184;9.722;2022-09-30T14:04:39;23.50;51.10
8188;DHT22;4135;49.184;9.722;2022-09-30T14:13:42;23.50;50.10
8188;DHT22;4135;49.184;9.722;2022-09-30T14:17:01;23.40;49.50
8188;DHT22;4135;49.184;9.722;2022-09-30T14:22:27;23.10;48.30
8188;DHT22;4135;49.184;9.722;2022-09-30T14:24:58;23.00;48.20
8188;DHT22;4135;49.184;9.722;2022-09-30T14:30:04;22.90;47.50
8188;DHT22;4135;49.184;9.722;2022-09-30T14:35:10;23.00;48.90
8188;DHT22;4135;49.184;9.722;2022-09-30T14:37:47;23.10;49.50
8188;DHT22;4135;49.184;9.722;2022-09-30T14:40:27;23.10;49.60
8188;DHT22;4135;49.184;9.722;2022-09-30T14:43:04;23.10;49.80
8188;DHT22;4135;49.184;9.722;2022-09-30T14:45:37;23.20;50.50
8188;DHT22;4135;49.184;9.722;2022-09-30T14:48:13;23.20;50.60
8188;DHT22;4135;49.184;9.722;2022-09-30T14:50:52;23.20;50.40
8188;DHT22;4135;49.184;9.722;2022-09-30T14:55:59;23.20;50.50
8188;DHT22;4135;49.184;9.722;2022-09-30T14:58:30;23.20;49.60
8188;DHT22;4135;49.184;9.722;2022-09-30T15:01:20;23.20;50.00
8188;DHT22;4135;49.184;9.722;2022-09-30T15:04:02;23.20;50.50
8188;DHT22;4135;49.184;9.722;2022-09-30T15:06:35;23.20;50.40
8188;DHT22;4135;49.184;9.722;2022-09-30T15:09:39;23.10;50.50
8188;DHT22;4135;49.184;9.722;2022-09-30T15:12:21;23.20;50.80
8188;DHT22;4135;49.184;9.722;2022-09-30T15:14:58;23.20;50.80
8188;DHT22;4135;49.184;9.722;2022-09-30T15:17:37;23.10;50.80
8188;DHT22;4135;49.184;9.722;2022-09-30T15:20:36;23.10;50.80
8188;DHT22;4135;49.184;9.722;2022-09-30T15:23:12;23.20;50.90
8188;DHT22;4135;49.184;9.722;2022-09-30T15:25:43;23.10;50.80
8188;DHT22;4135;49.184;9.722;2022-09-30T15:28:12;23.10;50.80
8188;DHT22;4135;49.184;9.722;2022-09-30T15:30:42;23.10;50.80
8188;DHT22;4135;49.184;9.722;2022-09-30T15:33:17;23.10;50.80
8188;DHT22;4135;49.184;9.722;2022-09-30T15:35:47;23.20;50.90
8188;DHT22;4135;49.184;9.722;2022-09-30T15:38:24;23.10;50.80
8188;DHT22;4135;49.184;9.722;2022-09-30T15:40:58;23.10;50.90
8188;DHT22;4135;49.184;9.722;2022-09-30T15:43:32;23.10;50.90
8188;DHT22;4135;49.184;9.722;2022-09-30T15:46:37;23.10;50.90
8188;DHT22;4135;49.184;9.722;2022-09-30T15:54:57;23.10;51.00
8188;DHT22;4135;49.184;9.722;2022-09-30T16:00:29;23.10;51.00
8188;DHT22;4135;49.184;9.722;2022-09-30T16:03:20;23.10;51.10
8188;DHT22;4135;49.184;9.722;2022-09-30T16:05:53;23.10;51.00
8188;DHT22;4135;49.184;9.722;2022-09-30T16:08:40;23.10;51.10
8188;DHT22;4135;49.184;9.722;2022-09-30T16:11:21;23.10;51.00
8188;DHT22;4135;49.184;9.722;2022-09-30T16:13:53;23.00;51.00
8188;DHT22;4135;49.184;9.722;2022-09-30T16:16:27;23.00;51.00
8188;DHT22;4135;49.184;9.722;2022-09-30T16:18:59;23.00;51.00
8188;DHT22;4135;49.184;9.722;2022-09-30T16:21:37;23.00;51.00
8188;DHT22;4135;49.184;9.722;2022-09-30T16:27:15;23.00;51.10
8188;DHT22;4135;49.184;9.722;2022-09-30T16:29:47;23.00;51.20
8188;DHT22;4135;49.184;9.722;2022-09-30T16:32:17;22.90;51.10
8188;DHT22;4135;49.184;9.722;2022-09-30T16:34:46;22.90;51.10
8188;DHT22;4135;49.184;9.722;2022-09-30T16:37:18;22.90;51.20
8188;DHT22;4135;49.184;9.722;2022-09-30T16:39:48;22.90;51.20
8188;DHT22;4135;49.184;9.722;2022-09-30T16:42:18;22.90;51.20
8188;DHT22;4135;49.184;9.722;2022-09-30T16:44:48;22.90;51.40
8188;DHT22;4135;49.184;9.722;2022-09-30T16:47:18;22.90;51.40
8188;DHT22;4135;49.184;9.722;2022-09-30T16:49:49;22.80;51.20
8188;DHT22;4135;49.184;9.722;2022-09-30T16:52:19;22.80;51.20
8188;DHT22;4135;49.184;9.722;2022-09-30T16:54:49;22.80;51.40
8188;DHT22;4135;49.184;9.722;2022-09-30T16:57:18;22.80;51.40
8188;DHT22;4135;49.184;9.722;2022-09-30T16:59:48;22.80;51.40
8188;DHT22;4135;49.184;9.722;2022-09-30T17:02:17;22.70;51.40
8188;DHT22;4135;49.184;9.722;2022-09-30T17:04:47;22.70;51.40
8188;DHT22;4135;49.184;9.722;2022-09-30T17:07:16;22.70;51.40
8188;DHT22;4135;49.184;9.722;2022-09-30T17:09:46;22.70;51.50
8188;DHT22;4135;49.184;9.722;2022-09-30T17:12:15;22.70;51.50
8188;DHT22;4135;49.184;9.722;2022-09-30T17:14:45;22.70;51.50
8188;DHT22;4135;49.184;9.722;2022-09-30T17:17:14;22.60;51.50
8188;DHT22;4135;49.184;9.722;2022-09-30T17:19:44;22.60;51.50
8188;DHT22;4135;49.184;9.722;2022-09-30T17:22:13;22.60;51.50
8188;DHT22;4135;49.184;9.722;2022-09-30T17:24:43;22.60;51.40
8188;DHT22;4135;49.184;9.722;2022-09-30T17:27:13;22.60;51.50
8188;DHT22;4135;49.184;9.722;2022-09-30T17:29:42;22.50;51.40
8188;DHT22;4135;49.184;9.722;2022-09-30T17:32:12;22.50;51.40
8188;DHT22;4135;49.184;9.722;2022-09-30T17:34:41;22.50;51.70
8188;DHT22;4135;49.184;9.722;2022-09-30T17:37:11;22.50;51.70
8188;DHT22;4135;49.184;9.722;2022-09-30T17:39:42;22.50;51.80
8188;DHT22;4135;49.184;9.722;2022-09-30T17:42:13;22.50;51.80
8188;DHT22;4135;49.184;9.722;2022-09-30T17:45:02;22.50;51.80
8188;DHT22;4135;49.184;9.722;2022-09-30T17:47:32;22.40;51.80
8188;DHT22;4135;49.184;9.722;2022-09-30T17:50:03;22.50;51.90
8188;DHT22;4135;49.184;9.722;2022-09-30T17:52:33;22.40;51.80
8188;DHT22;4135;49.184;9.722;2022-09-30T17:55:02;22.40;51.90
8188;DHT22;4135;49.184;9.722;2022-09-30T17:57:33;22.40;51.80
8188;DHT22;4135;49.184;9.722;2022-09-30T18:00:07;22.40;51.90
8188;DHT22;4135;49.184;9.722;2022-09-30T18:02:37;22.30;51.70
8188;DHT22;4135;49.184;9.722;2022-09-30T18:05:07;22.30;51.80
8188;DHT22;4135;49.184;9.722;2022-09-30T18:07:37;22.30;51.70
8188;DHT22;4135;49.184;9.722;2022-09-30T18:10:07;22.30;51.80
8188;DHT22;4135;49.184;9.722;2022-09-30T18:12:36;22.30;51.80
8188;DHT22;4135;49.184;9.722;2022-09-30T18:15:06;22.30;51.70
8188;DHT22;4135;49.184;9.722;2022-09-30T18:17:36;22.30;51.70
8188;DHT22;4135;49.184;9.722;2022-09-30T18:20:06;22.30;51.70
8188;DHT22;4135;49.184;9.722;2022-09-30T18:22:35;22.30;51.60
8188;DHT22;4135;49.184;9.722;2022-09-30T18:25:06;22.20;51.60
8188;DHT22;4135;49.184;9.722;2022-09-30T18:27:58;22.20;51.50
8188;DHT22;4135;49.184;9.722;2022-09-30T18:30:27;22.20;51.50
8188;DHT22;4135;49.184;9.722;2022-09-30T18:32:57;22.20;51.40
8188;DHT22;4135;49.184;9.722;2022-09-30T18:35:27;22.20;51.50
8188;DHT22;4135;49.184;9.722;2022-09-30T18:37:58;22.20;51.40
8188;DHT22;4135;49.184;9.722;2022-09-30T18:40:29;22.20;51.40
8188;DHT22;4135;49.184;9.722;2022-09-30T18:43:01;22.20;51.40
8188;DHT22;4135;49.184;9.722;2022-09-30T18:45:32;22.10;51.40
8188;DHT22;4135;49.184;9.722;2022-09-30T18:48:08;22.10;51.50
8188;DHT22;4135;49.184;9.722;2022-09-30T18:50:37;22.10;51.50
8188;DHT22;4135;49.184;9.722;2022-09-30T18:53:10;22.10;51.50
8188;DHT22;4135;49.184;9.722;2022-09-30T18:55:40;22.00;51.40
8188;DHT22;4135;49.184;9.722;2022-09-30T18:58:13;22.00;51.40
8188;DHT22;4135;49.184;9.722;2022-09-30T19:00:45;21.90;51.40
8188;DHT22;4135;49.184;9.722;2022-09-30T19:03:15;21.90;51.30
8188;DHT22;4135;49.184;9.722;2022-09-30T19:05:45;21.90;51.30
8188;DHT22;4135;49.184;9.722;2022-09-30T19:08:14;21.90;51.30
8188;DHT22;4135;49.184;9.722;2022-09-30T19:10:44;21.90;51.30
8188;DHT22;4135;49.184;9.722;2022-09-30T19:13:13;21.90;51.30
8188;DHT22;4135;49.184;9.722;2022-09-30T19:15:43;21.90;51.30
8188;DHT22;4135;49.184;9.722;2022-09-30T19:18:14;21.80;51.20
8188;DHT22;4135;49.184;9.722;2022-09-30T19:20:43;21.80;51.20
8188;DHT22;4135;49.184;9.722;2022-09-30T19:23:13;21.80;51.20
8188;DHT22;4135;49.184;9.722;2022-09-30T19:25:43;21.80;51.20
8188;DHT22;4135;49.184;9.722;2022-09-30T19:28:12;21.70;51.10
8188;DHT22;4135;49.184;9.722;2022-09-30T19:30:42;21.70;51.10
8188;DHT22;4135;49.184;9.722;2022-09-30T19:33:12;21.70;51.10
8188;DHT22;4135;49.184;9.722;2022-09-30T19:35:41;21.70;51.10
8188;DHT22;4135;49.184;9.722;2022-09-30T19:38:11;21.70;51.10
8188;DHT22;4135;49.184;9.722;2022-09-30T19:40:42;21.70;51.10
8188;DHT22;4135;49.184;9.722;2022-09-30T19:43:11;21.70;51.10
8188;DHT22;4135;49.184;9.722;2022-09-30T19:45:41;21.60;51.00